Weather at Kencor Airport [CLOSED]

Public forecast

Using degrees Celsius for public forecast. Weather courtesy of forecast.io.

Closest aviation weather report (METAR) to Kencor Airport

Closest report is Calgary / Springbank Airport, 11.9 nm (22.0 km) NNW. Retrieved 2020/11/26 22:47 UTC (24 minutes ago):

CYBW 262247Z AUTO 26015KT 9SM SCT240 05/M08 A2980 RMK SLP128

Closest aviation forecast (TAF) to Kencor Airport

Closest forecast is Calgary / Springbank Airport, 11.9 nm (22.0 km) NNW. Retrieved 2020/11/26 18:00 UTC (5 hours ago):

TAF CYBW 261738Z 2618/2705 16012KT P6SM SCT080 FM262000 24012KT P6SM FEW080 SCT240 TEMPO 2623/2705 27020G30KT RMK FCST BASED ON AUTO OBS NXT FCST BY 270000Z